sensor_id;sensor_type;location;lat;lon;timestamp;P1;durP1;ratioP1;P2;durP2;ratioP2
57730;SDS011;43570;47.476;19.040;2023-06-10T00:02:28;10.43;;;9.32;;
57730;SDS011;43570;47.476;19.040;2023-06-10T00:04:53;11.12;;;8.57;;
57730;SDS011;43570;47.476;19.040;2023-06-10T00:07:19;11.38;;;10.00;;
57730;SDS011;43570;47.476;19.040;2023-06-10T00:09:44;10.88;;;9.77;;
57730;SDS011;43570;47.476;19.040;2023-06-10T00:12:10;10.70;;;9.55;;
57730;SDS011;43570;47.476;19.040;2023-06-10T00:14:38;12.82;;;10.48;;
57730;SDS011;43570;47.476;19.040;2023-06-10T00:17:05;11.48;;;10.25;;
57730;SDS011;43570;47.476;19.040;2023-06-10T00:19:34;11.75;;;10.00;;
57730;SDS011;43570;47.476;19.040;2023-06-10T00:22:01;12.43;;;10.23;;
57730;SDS011;43570;47.476;19.040;2023-06-10T00:24:27;10.23;;;9.18;;
57730;SDS011;43570;47.476;19.040;2023-06-10T00:26:53;9.50;;;8.60;;
57730;SDS011;43570;47.476;19.040;2023-06-10T00:29:18;10.52;;;9.45;;
57730;SDS011;43570;47.476;19.040;2023-06-10T00:31:44;12.27;;;9.40;;
57730;SDS011;43570;47.476;19.040;2023-06-10T00:34:09;10.18;;;9.07;;
57730;SDS011;43570;47.476;19.040;2023-06-10T00:36:35;9.68;;;8.77;;
57730;SDS011;43570;47.476;19.040;2023-06-10T00:39:00;9.27;;;8.27;;
57730;SDS011;43570;47.476;19.040;2023-06-10T00:41:26;10.00;;;8.98;;
57730;SDS011;43570;47.476;19.040;2023-06-10T00:43:51;9.57;;;8.20;;
57730;SDS011;43570;47.476;19.040;2023-06-10T00:46:17;9.68;;;8.75;;
57730;SDS011;43570;47.476;19.040;2023-06-10T00:48:43;10.73;;;8.50;;
57730;SDS011;43570;47.476;19.040;2023-06-10T00:51:09;12.13;;;9.00;;
57730;SDS011;43570;47.476;19.040;2023-06-10T00:53:39;9.35;;;8.10;;
57730;SDS011;43570;47.476;19.040;2023-06-10T00:56:05;9.20;;;8.30;;
57730;SDS011;43570;47.476;19.040;2023-06-10T00:58:31;9.73;;;8.32;;
57730;SDS011;43570;47.476;19.040;2023-06-10T01:00:56;10.70;;;8.73;;
57730;SDS011;43570;47.476;19.040;2023-06-10T01:03:22;11.45;;;8.90;;
57730;SDS011;43570;47.476;19.040;2023-06-10T01:05:50;12.60;;;9.32;;
57730;SDS011;43570;47.476;19.040;2023-06-10T01:08:39;11.07;;;8.60;;
57730;SDS011;43570;47.476;19.040;2023-06-10T01:11:13;11.93;;;8.35;;
57730;SDS011;43570;47.476;19.040;2023-06-10T01:13:43;9.80;;;8.80;;
57730;SDS011;43570;47.476;19.040;2023-06-10T01:16:10;10.43;;;8.55;;
57730;SDS011;43570;47.476;19.040;2023-06-10T01:18:36;10.70;;;9.48;;
57730;SDS011;43570;47.476;19.040;2023-06-10T01:21:03;9.55;;;8.60;;
57730;SDS011;43570;47.476;19.040;2023-06-10T01:23:29;9.13;;;8.23;;
57730;SDS011;43570;47.476;19.040;2023-06-10T01:26:01;13.02;;;9.07;;
57730;SDS011;43570;47.476;19.040;2023-06-10T01:28:46;10.80;;;8.05;;
57730;SDS011;43570;47.476;19.040;2023-06-10T01:33:47;10.68;;;7.93;;
57730;SDS011;43570;47.476;19.040;2023-06-10T01:36:15;9.88;;;8.27;;
57730;SDS011;43570;47.476;19.040;2023-06-10T01:38:44;8.20;;;7.28;;
57730;SDS011;43570;47.476;19.040;2023-06-10T01:41:15;9.50;;;7.93;;
57730;SDS011;43570;47.476;19.040;2023-06-10T01:43:45;8.55;;;7.70;;
57730;SDS011;43570;47.476;19.040;2023-06-10T01:46:10;9.00;;;8.10;;
57730;SDS011;43570;47.476;19.040;2023-06-10T01:48:37;11.30;;;7.40;;
57730;SDS011;43570;47.476;19.040;2023-06-10T01:51:03;9.85;;;8.07;;
57730;SDS011;43570;47.476;19.040;2023-06-10T01:53:28;9.13;;;8.20;;
57730;SDS011;43570;47.476;19.040;2023-06-10T01:55:54;9.35;;;8.20;;
57730;SDS011;43570;47.476;19.040;2023-06-10T01:58:19;10.80;;;9.43;;
57730;SDS011;43570;47.476;19.040;2023-06-10T02:00:44;10.05;;;8.25;;
57730;SDS011;43570;47.476;19.040;2023-06-10T02:03:10;10.23;;;8.85;;
57730;SDS011;43570;47.476;19.040;2023-06-10T02:05:35;10.20;;;8.15;;
57730;SDS011;43570;47.476;19.040;2023-06-10T02:08:00;10.45;;;9.20;;
57730;SDS011;43570;47.476;19.040;2023-06-10T02:10:26;9.90;;;8.90;;
57730;SDS011;43570;47.476;19.040;2023-06-10T02:12:51;10.00;;;8.23;;
57730;SDS011;43570;47.476;19.040;2023-06-10T02:15:17;10.52;;;8.70;;
57730;SDS011;43570;47.476;19.040;2023-06-10T02:17:42;10.25;;;8.38;;
57730;SDS011;43570;47.476;19.040;2023-06-10T02:20:09;10.02;;;9.02;;
57730;SDS011;43570;47.476;19.040;2023-06-10T02:22:35;10.05;;;8.93;;
57730;SDS011;43570;47.476;19.040;2023-06-10T02:25:01;11.52;;;9.18;;
57730;SDS011;43570;47.476;19.040;2023-06-10T02:27:26;11.57;;;8.73;;
57730;SDS011;43570;47.476;19.040;2023-06-10T02:29:52;9.75;;;8.50;;
57730;SDS011;43570;47.476;19.040;2023-06-10T02:32:17;11.65;;;8.57;;
57730;SDS011;43570;47.476;19.040;2023-06-10T02:34:43;8.77;;;7.82;;
57730;SDS011;43570;47.476;19.040;2023-06-10T02:37:09;14.50;;;8.95;;
57730;SDS011;43570;47.476;19.040;2023-06-10T02:39:34;10.75;;;8.02;;
57730;SDS011;43570;47.476;19.040;2023-06-10T02:41:59;12.75;;;9.30;;
57730;SDS011;43570;47.476;19.040;2023-06-10T02:44:25;9.63;;;8.63;;
57730;SDS011;43570;47.476;19.040;2023-06-10T02:46:50;9.88;;;8.10;;
57730;SDS011;43570;47.476;19.040;2023-06-10T02:49:16;11.70;;;8.50;;
57730;SDS011;43570;47.476;19.040;2023-06-10T02:51:41;10.88;;;8.43;;
57730;SDS011;43570;47.476;19.040;2023-06-10T02:54:06;9.55;;;8.55;;
57730;SDS011;43570;47.476;19.040;2023-06-10T02:56:32;10.25;;;8.05;;
57730;SDS011;43570;47.476;19.040;2023-06-10T02:58:58;11.90;;;8.57;;
57730;SDS011;43570;47.476;19.040;2023-06-10T03:01:23;11.55;;;9.00;;
57730;SDS011;43570;47.476;19.040;2023-06-10T03:03:49;9.95;;;8.95;;
57730;SDS011;43570;47.476;19.040;2023-06-10T03:06:15;10.77;;;9.65;;
57730;SDS011;43570;47.476;19.040;2023-06-10T03:08:42;12.18;;;8.60;;
57730;SDS011;43570;47.476;19.040;2023-06-10T03:11:07;13.50;;;9.98;;
57730;SDS011;43570;47.476;19.040;2023-06-10T03:13:33;12.32;;;9.85;;
57730;SDS011;43570;47.476;19.040;2023-06-10T03:15:58;11.75;;;9.38;;
57730;SDS011;43570;47.476;19.040;2023-06-10T03:18:25;14.65;;;10.57;;
57730;SDS011;43570;47.476;19.040;2023-06-10T03:20:52;12.98;;;10.07;;
57730;SDS011;43570;47.476;19.040;2023-06-10T03:23:17;12.35;;;10.45;;
57730;SDS011;43570;47.476;19.040;2023-06-10T03:25:43;11.30;;;10.05;;
57730;SDS011;43570;47.476;19.040;2023-06-10T03:28:09;15.57;;;10.88;;
57730;SDS011;43570;47.476;19.040;2023-06-10T03:30:35;12.10;;;10.68;;
57730;SDS011;43570;47.476;19.040;2023-06-10T03:33:00;14.18;;;10.25;;
57730;SDS011;43570;47.476;19.040;2023-06-10T03:35:25;11.85;;;9.85;;
57730;SDS011;43570;47.476;19.040;2023-06-10T03:37:51;10.63;;;9.32;;
57730;SDS011;43570;47.476;19.040;2023-06-10T03:40:16;10.77;;;9.65;;
57730;SDS011;43570;47.476;19.040;2023-06-10T03:42:42;10.40;;;9.27;;
57730;SDS011;43570;47.476;19.040;2023-06-10T03:45:09;10.40;;;9.25;;
57730;SDS011;43570;47.476;19.040;2023-06-10T03:47:35;11.32;;;8.15;;
57730;SDS011;43570;47.476;19.040;2023-06-10T03:50:02;13.88;;;8.88;;
57730;SDS011;43570;47.476;19.040;2023-06-10T03:52:28;9.75;;;8.75;;
57730;SDS011;43570;47.476;19.040;2023-06-10T03:54:54;11.07;;;9.05;;
57730;SDS011;43570;47.476;19.040;2023-06-10T03:57:19;11.35;;;9.75;;
57730;SDS011;43570;47.476;19.040;2023-06-10T03:59:44;11.98;;;9.02;;
57730;SDS011;43570;47.476;19.040;2023-06-10T04:02:10;10.35;;;9.25;;
57730;SDS011;43570;47.476;19.040;2023-06-10T04:04:35;9.68;;;8.68;;
57730;SDS011;43570;47.476;19.040;2023-06-10T04:07:02;10.40;;;9.30;;
57730;SDS011;43570;47.476;19.040;2023-06-10T04:09:28;12.52;;;9.32;;
57730;SDS011;43570;47.476;19.040;2023-06-10T04:11:53;11.73;;;9.77;;
57730;SDS011;43570;47.476;19.040;2023-06-10T04:14:19;9.65;;;8.50;;
57730;SDS011;43570;47.476;19.040;2023-06-10T04:16:44;11.65;;;8.98;;
57730;SDS011;43570;47.476;19.040;2023-06-10T04:19:09;10.25;;;8.70;;
57730;SDS011;43570;47.476;19.040;2023-06-10T04:21:35;9.60;;;8.60;;
57730;SDS011;43570;47.476;19.040;2023-06-10T04:24:01;12.90;;;9.23;;
57730;SDS011;43570;47.476;19.040;2023-06-10T04:26:27;11.38;;;9.68;;
57730;SDS011;43570;47.476;19.040;2023-06-10T04:28:52;10.48;;;9.13;;
57730;SDS011;43570;47.476;19.040;2023-06-10T04:31:17;11.90;;;8.98;;
57730;SDS011;43570;47.476;19.040;2023-06-10T04:33:43;11.77;;;10.30;;
57730;SDS011;43570;47.476;19.040;2023-06-10T04:36:08;11.80;;;9.57;;
57730;SDS011;43570;47.476;19.040;2023-06-10T04:38:34;9.82;;;8.93;;
57730;SDS011;43570;47.476;19.040;2023-06-10T04:40:59;11.90;;;9.68;;
57730;SDS011;43570;47.476;19.040;2023-06-10T04:43:24;14.07;;;9.30;;
57730;SDS011;43570;47.476;19.040;2023-06-10T04:45:50;12.18;;;9.82;;
57730;SDS011;43570;47.476;19.040;2023-06-10T04:48:15;10.57;;;9.48;;
57730;SDS011;43570;47.476;19.040;2023-06-10T04:50:41;12.02;;;9.25;;
57730;SDS011;43570;47.476;19.040;2023-06-10T04:53:06;12.37;;;10.30;;
57730;SDS011;43570;47.476;19.040;2023-06-10T04:55:32;11.43;;;10.25;;
57730;SDS011;43570;47.476;19.040;2023-06-10T04:57:59;10.50;;;9.30;;
57730;SDS011;43570;47.476;19.040;2023-06-10T05:00:25;10.82;;;9.73;;
57730;SDS011;43570;47.476;19.040;2023-06-10T05:02:51;10.25;;;9.18;;
57730;SDS011;43570;47.476;19.040;2023-06-10T05:05:17;9.50;;;8.43;;
57730;SDS011;43570;47.476;19.040;2023-06-10T05:07:42;10.30;;;9.25;;
57730;SDS011;43570;47.476;19.040;2023-06-10T05:10:08;10.90;;;9.10;;
57730;SDS011;43570;47.476;19.040;2023-06-10T05:12:34;10.02;;;8.93;;
57730;SDS011;43570;47.476;19.040;2023-06-10T05:14:59;10.48;;;7.93;;
57730;SDS011;43570;47.476;19.040;2023-06-10T05:17:24;8.25;;;7.12;;
57730;SDS011;43570;47.476;19.040;2023-06-10T05:19:50;9.77;;;7.87;;
57730;SDS011;43570;47.476;19.040;2023-06-10T05:22:16;12.43;;;7.97;;
57730;SDS011;43570;47.476;19.040;2023-06-10T05:24:43;9.23;;;7.45;;
57730;SDS011;43570;47.476;19.040;2023-06-10T05:27:09;8.60;;;7.20;;
57730;SDS011;43570;47.476;19.040;2023-06-10T05:29:34;9.57;;;6.50;;
57730;SDS011;43570;47.476;19.040;2023-06-10T05:32:00;7.47;;;6.57;;
57730;SDS011;43570;47.476;19.040;2023-06-10T05:36:26;7.45;;;5.62;;
57730;SDS011;43570;47.476;19.040;2023-06-10T05:38:52;6.72;;;5.15;;
57730;SDS011;43570;47.476;19.040;2023-06-10T05:41:18;8.45;;;4.70;;
57730;SDS011;43570;47.476;19.040;2023-06-10T05:43:43;7.20;;;4.30;;
57730;SDS011;43570;47.476;19.040;2023-06-10T05:46:08;7.12;;;4.45;;
57730;SDS011;43570;47.476;19.040;2023-06-10T05:48:34;7.00;;;4.32;;
57730;SDS011;43570;47.476;19.040;2023-06-10T05:50:59;4.90;;;4.18;;
57730;SDS011;43570;47.476;19.040;2023-06-10T05:53:24;5.25;;;3.85;;
57730;SDS011;43570;47.476;19.040;2023-06-10T05:55:50;6.80;;;4.72;;
57730;SDS011;43570;47.476;19.040;2023-06-10T05:58:16;6.50;;;4.35;;
57730;SDS011;43570;47.476;19.040;2023-06-10T06:00:41;5.55;;;4.90;;
57730;SDS011;43570;47.476;19.040;2023-06-10T06:03:07;6.32;;;4.65;;
57730;SDS011;43570;47.476;19.040;2023-06-10T06:05:52;8.85;;;4.37;;
57730;SDS011;43570;47.476;19.040;2023-06-10T06:08:18;7.00;;;4.55;;
57730;SDS011;43570;47.476;19.040;2023-06-10T06:10:44;8.05;;;4.90;;
57730;SDS011;43570;47.476;19.040;2023-06-10T06:13:10;7.32;;;4.45;;
57730;SDS011;43570;47.476;19.040;2023-06-10T06:15:35;8.10;;;4.90;;
57730;SDS011;43570;47.476;19.040;2023-06-10T06:18:02;7.28;;;4.68;;
57730;SDS011;43570;47.476;19.040;2023-06-10T06:20:27;7.82;;;4.25;;
57730;SDS011;43570;47.476;19.040;2023-06-10T06:22:53;6.90;;;4.32;;
57730;SDS011;43570;47.476;19.040;2023-06-10T06:25:19;6.15;;;4.35;;
57730;SDS011;43570;47.476;19.040;2023-06-10T06:27:44;7.03;;;4.75;;
57730;SDS011;43570;47.476;19.040;2023-06-10T06:30:10;9.80;;;4.68;;
57730;SDS011;43570;47.476;19.040;2023-06-10T06:32:36;8.52;;;4.45;;
57730;SDS011;43570;47.476;19.040;2023-06-10T06:35:01;6.97;;;4.47;;
57730;SDS011;43570;47.476;19.040;2023-06-10T06:37:27;7.18;;;4.72;;
57730;SDS011;43570;47.476;19.040;2023-06-10T06:39:53;8.00;;;4.82;;
57730;SDS011;43570;47.476;19.040;2023-06-10T06:42:19;7.97;;;5.10;;
57730;SDS011;43570;47.476;19.040;2023-06-10T06:44:46;6.55;;;4.93;;
57730;SDS011;43570;47.476;19.040;2023-06-10T06:47:11;6.10;;;4.72;;
57730;SDS011;43570;47.476;19.040;2023-06-10T06:49:37;7.25;;;5.57;;
57730;SDS011;43570;47.476;19.040;2023-06-10T06:52:02;8.40;;;6.15;;
57730;SDS011;43570;47.476;19.040;2023-06-10T06:54:28;9.27;;;5.85;;
57730;SDS011;43570;47.476;19.040;2023-06-10T06:56:54;8.48;;;6.32;;
57730;SDS011;43570;47.476;19.040;2023-06-10T06:59:19;7.50;;;6.40;;
57730;SDS011;43570;47.476;19.040;2023-06-10T07:01:45;8.68;;;5.90;;
57730;SDS011;43570;47.476;19.040;2023-06-10T07:04:11;10.65;;;7.50;;
57730;SDS011;43570;47.476;19.040;2023-06-10T07:06:36;7.15;;;5.40;;
57730;SDS011;43570;47.476;19.040;2023-06-10T07:09:03;9.30;;;6.57;;
57730;SDS011;43570;47.476;19.040;2023-06-10T07:11:29;8.48;;;5.87;;
57730;SDS011;43570;47.476;19.040;2023-06-10T07:13:55;8.25;;;7.30;;
57730;SDS011;43570;47.476;19.040;2023-06-10T07:16:20;9.07;;;6.10;;
57730;SDS011;43570;47.476;19.040;2023-06-10T07:18:46;7.87;;;6.60;;
57730;SDS011;43570;47.476;19.040;2023-06-10T07:21:11;8.15;;;6.78;;
57730;SDS011;43570;47.476;19.040;2023-06-10T07:23:37;7.35;;;6.53;;
57730;SDS011;43570;47.476;19.040;2023-06-10T07:26:02;8.88;;;7.60;;
57730;SDS011;43570;47.476;19.040;2023-06-10T07:28:28;8.15;;;6.57;;
57730;SDS011;43570;47.476;19.040;2023-06-10T07:30:54;8.18;;;6.40;;
57730;SDS011;43570;47.476;19.040;2023-06-10T07:33:19;8.35;;;6.95;;
57730;SDS011;43570;47.476;19.040;2023-06-10T07:35:45;10.20;;;6.78;;
57730;SDS011;43570;47.476;19.040;2023-06-10T07:38:10;8.55;;;7.55;;
57730;SDS011;43570;47.476;19.040;2023-06-10T07:40:36;7.72;;;6.93;;
57730;SDS011;43570;47.476;19.040;2023-06-10T07:43:01;10.02;;;7.62;;
57730;SDS011;43570;47.476;19.040;2023-06-10T07:45:26;8.40;;;6.37;;
57730;SDS011;43570;47.476;19.040;2023-06-10T07:47:52;9.10;;;6.35;;
57730;SDS011;43570;47.476;19.040;2023-06-10T07:50:20;7.75;;;6.45;;
57730;SDS011;43570;47.476;19.040;2023-06-10T07:52:46;8.23;;;6.40;;
57730;SDS011;43570;47.476;19.040;2023-06-10T07:55:11;7.93;;;6.30;;
57730;SDS011;43570;47.476;19.040;2023-06-10T07:57:37;8.85;;;6.30;;
57730;SDS011;43570;47.476;19.040;2023-06-10T08:00:03;6.55;;;5.75;;
57730;SDS011;43570;47.476;19.040;2023-06-10T08:02:29;7.15;;;6.12;;
57730;SDS011;43570;47.476;19.040;2023-06-10T08:04:55;10.32;;;5.95;;
57730;SDS011;43570;47.476;19.040;2023-06-10T08:07:21;10.20;;;5.82;;
57730;SDS011;43570;47.476;19.040;2023-06-10T08:09:47;8.13;;;6.20;;
57730;SDS011;43570;47.476;19.040;2023-06-10T08:12:12;7.00;;;5.95;;
57730;SDS011;43570;47.476;19.040;2023-06-10T08:14:37;8.15;;;6.70;;
57730;SDS011;43570;47.476;19.040;2023-06-10T08:17:03;9.30;;;6.22;;
57730;SDS011;43570;47.476;19.040;2023-06-10T08:19:31;9.77;;;5.75;;
57730;SDS011;43570;47.476;19.040;2023-06-10T08:21:56;9.68;;;6.30;;
57730;SDS011;43570;47.476;19.040;2023-06-10T08:24:21;7.65;;;6.22;;
57730;SDS011;43570;47.476;19.040;2023-06-10T08:26:47;8.98;;;6.28;;
57730;SDS011;43570;47.476;19.040;2023-06-10T08:29:12;7.25;;;5.97;;
57730;SDS011;43570;47.476;19.040;2023-06-10T08:31:41;8.55;;;6.18;;
57730;SDS011;43570;47.476;19.040;2023-06-10T08:34:07;8.52;;;6.20;;
57730;SDS011;43570;47.476;19.040;2023-06-10T08:36:33;7.97;;;7.18;;
57730;SDS011;43570;47.476;19.040;2023-06-10T08:38:58;7.55;;;6.28;;
57730;SDS011;43570;47.476;19.040;2023-06-10T08:41:23;7.95;;;6.82;;
57730;SDS011;43570;47.476;19.040;2023-06-10T08:44:12;7.85;;;7.03;;
57730;SDS011;43570;47.476;19.040;2023-06-10T08:46:40;8.15;;;6.72;;
57730;SDS011;43570;47.476;19.040;2023-06-10T08:49:08;6.93;;;6.27;;
57730;SDS011;43570;47.476;19.040;2023-06-10T08:51:34;8.25;;;6.93;;
57730;SDS011;43570;47.476;19.040;2023-06-10T08:54:01;7.65;;;6.78;;
57730;SDS011;43570;47.476;19.040;2023-06-10T08:56:28;7.70;;;6.28;;
57730;SDS011;43570;47.476;19.040;2023-06-10T08:58:55;10.10;;;7.87;;
57730;SDS011;43570;47.476;19.040;2023-06-10T09:01:21;10.27;;;7.68;;
57730;SDS011;43570;47.476;19.040;2023-06-10T09:03:48;9.02;;;6.55;;
57730;SDS011;43570;47.476;19.040;2023-06-10T09:06:14;7.97;;;6.85;;
57730;SDS011;43570;47.476;19.040;2023-06-10T09:08:40;8.10;;;6.22;;
57730;SDS011;43570;47.476;19.040;2023-06-10T09:11:06;7.10;;;6.40;;
57730;SDS011;43570;47.476;19.040;2023-06-10T09:13:31;8.00;;;7.20;;
57730;SDS011;43570;47.476;19.040;2023-06-10T09:15:57;8.40;;;7.60;;
57730;SDS011;43570;47.476;19.040;2023-06-10T09:18:26;9.80;;;7.12;;
57730;SDS011;43570;47.476;19.040;2023-06-10T09:20:52;9.32;;;8.32;;
57730;SDS011;43570;47.476;19.040;2023-06-10T09:23:17;9.20;;;8.30;;
57730;SDS011;43570;47.476;19.040;2023-06-10T09:25:43;9.00;;;8.20;;
57730;SDS011;43570;47.476;19.040;2023-06-10T09:28:14;10.00;;;9.07;;
57730;SDS011;43570;47.476;19.040;2023-06-10T09:30:40;8.60;;;7.75;;
57730;SDS011;43570;47.476;19.040;2023-06-10T09:33:10;8.98;;;8.15;;
57730;SDS011;43570;47.476;19.040;2023-06-10T09:35:44;9.77;;;8.77;;
57730;SDS011;43570;47.476;19.040;2023-06-10T09:38:14;9.35;;;8.45;;
57730;SDS011;43570;47.476;19.040;2023-06-10T09:43:16;9.68;;;8.68;;
57730;SDS011;43570;47.476;19.040;2023-06-10T09:45:41;9.98;;;9.07;;
57730;SDS011;43570;47.476;19.040;2023-06-10T09:48:08;11.60;;;9.93;;
57730;SDS011;43570;47.476;19.040;2023-06-10T09:50:33;10.38;;;9.07;;
57730;SDS011;43570;47.476;19.040;2023-06-10T09:52:59;9.65;;;8.65;;
57730;SDS011;43570;47.476;19.040;2023-06-10T09:55:27;10.32;;;9.30;;
57730;SDS011;43570;47.476;19.040;2023-06-10T09:57:53;9.98;;;9.00;;
57730;SDS011;43570;47.476;19.040;2023-06-10T10:00:18;11.27;;;10.07;;
57730;SDS011;43570;47.476;19.040;2023-06-10T10:02:48;11.02;;;9.68;;
57730;SDS011;43570;47.476;19.040;2023-06-10T10:05:15;13.13;;;11.90;;
57730;SDS011;43570;47.476;19.040;2023-06-10T10:07:41;15.63;;;14.10;;
57730;SDS011;43570;47.476;19.040;2023-06-10T10:10:07;15.95;;;13.95;;
57730;SDS011;43570;47.476;19.040;2023-06-10T10:12:34;17.50;;;15.82;;
57730;SDS011;43570;47.476;19.040;2023-06-10T10:15:00;15.65;;;14.25;;
57730;SDS011;43570;47.476;19.040;2023-06-10T10:17:28;16.05;;;14.43;;
57730;SDS011;43570;47.476;19.040;2023-06-10T10:19:57;13.38;;;12.18;;
57730;SDS011;43570;47.476;19.040;2023-06-10T10:22:29;14.00;;;12.70;;
57730;SDS011;43570;47.476;19.040;2023-06-10T10:25:05;13.35;;;12.15;;
57730;SDS011;43570;47.476;19.040;2023-06-10T10:27:36;14.85;;;13.43;;
57730;SDS011;43570;47.476;19.040;2023-06-10T10:30:05;14.87;;;13.43;;
57730;SDS011;43570;47.476;19.040;2023-06-10T10:32:35;14.90;;;13.50;;
57730;SDS011;43570;47.476;19.040;2023-06-10T10:37:58;13.98;;;12.68;;
57730;SDS011;43570;47.476;19.040;2023-06-10T10:40:24;13.75;;;12.43;;
57730;SDS011;43570;47.476;19.040;2023-06-10T10:42:51;14.00;;;12.70;;
57730;SDS011;43570;47.476;19.040;2023-06-10T10:45:17;15.15;;;13.55;;
57730;SDS011;43570;47.476;19.040;2023-06-10T10:47:43;14.10;;;12.80;;
57730;SDS011;43570;47.476;19.040;2023-06-10T10:50:16;13.18;;;11.80;;
57730;SDS011;43570;47.476;19.040;2023-06-10T10:53:02;13.55;;;12.35;;
57730;SDS011;43570;47.476;19.040;2023-06-10T10:55:28;12.27;;;11.07;;
57730;SDS011;43570;47.476;19.040;2023-06-10T11:02:59;11.43;;;10.20;;
57730;SDS011;43570;47.476;19.040;2023-06-10T11:05:41;10.63;;;9.48;;
57730;SDS011;43570;47.476;19.040;2023-06-10T11:08:09;10.02;;;9.13;;
57730;SDS011;43570;47.476;19.040;2023-06-10T11:10:38;10.30;;;9.32;;
57730;SDS011;43570;47.476;19.040;2023-06-10T11:13:05;11.48;;;10.38;;
57730;SDS011;43570;47.476;19.040;2023-06-10T11:15:32;11.63;;;10.52;;
57730;SDS011;43570;47.476;19.040;2023-06-10T11:18:08;12.20;;;11.12;;
57730;SDS011;43570;47.476;19.040;2023-06-10T11:31:26;12.90;;;11.85;;
57730;SDS011;43570;47.476;19.040;2023-06-10T11:33:56;12.68;;;11.65;;
57730;SDS011;43570;47.476;19.040;2023-06-10T11:36:23;13.30;;;12.10;;
57730;SDS011;43570;47.476;19.040;2023-06-10T11:38:49;12.90;;;11.68;;
57730;SDS011;43570;47.476;19.040;2023-06-10T11:41:17;14.25;;;13.05;;
57730;SDS011;43570;47.476;19.040;2023-06-10T11:43:45;14.43;;;13.13;;
57730;SDS011;43570;47.476;19.040;2023-06-10T11:46:12;13.85;;;12.55;;
57730;SDS011;43570;47.476;19.040;2023-06-10T11:48:53;13.35;;;12.18;;
57730;SDS011;43570;47.476;19.040;2023-06-10T11:53:45;11.18;;;10.07;;
57730;SDS011;43570;47.476;19.040;2023-06-10T11:56:12;10.57;;;9.57;;
57730;SDS011;43570;47.476;19.040;2023-06-10T11:58:37;12.65;;;11.50;;
57730;SDS011;43570;47.476;19.040;2023-06-10T12:03:38;13.60;;;12.23;;
57730;SDS011;43570;47.476;19.040;2023-06-10T12:06:04;12.57;;;11.40;;
57730;SDS011;43570;47.476;19.040;2023-06-10T12:08:31;13.15;;;11.95;;
57730;SDS011;43570;47.476;19.040;2023-06-10T12:10:57;11.65;;;10.55;;
57730;SDS011;43570;47.476;19.040;2023-06-10T12:13:27;12.80;;;10.85;;
57730;SDS011;43570;47.476;19.040;2023-06-10T12:15:52;11.18;;;10.18;;
57730;SDS011;43570;47.476;19.040;2023-06-10T12:18:21;11.88;;;10.70;;
57730;SDS011;43570;47.476;19.040;2023-06-10T12:20:48;11.38;;;10.23;;
57730;SDS011;43570;47.476;19.040;2023-06-10T12:23:15;11.02;;;9.10;;
57730;SDS011;43570;47.476;19.040;2023-06-10T12:25:54;8.48;;;7.78;;
57730;SDS011;43570;47.476;19.040;2023-06-10T12:28:20;7.45;;;6.75;;
57730;SDS011;43570;47.476;19.040;2023-06-10T12:33:17;8.23;;;7.18;;
57730;SDS011;43570;47.476;19.040;2023-06-10T12:35:50;7.50;;;6.65;;
57730;SDS011;43570;47.476;19.040;2023-06-10T12:38:26;7.50;;;6.78;;
57730;SDS011;43570;47.476;19.040;2023-06-10T12:40:54;7.28;;;6.57;;
57730;SDS011;43570;47.476;19.040;2023-06-10T12:43:26;6.10;;;5.50;;
57730;SDS011;43570;47.476;19.040;2023-06-10T12:45:52;7.03;;;5.43;;
57730;SDS011;43570;47.476;19.040;2023-06-10T12:48:18;7.95;;;5.72;;
57730;SDS011;43570;47.476;19.040;2023-06-10T12:50:51;7.90;;;7.20;;
57730;SDS011;43570;47.476;19.040;2023-06-10T12:53:18;6.20;;;5.28;;
57730;SDS011;43570;47.476;19.040;2023-06-10T12:55:43;9.07;;;5.28;;
57730;SDS011;43570;47.476;19.040;2023-06-10T12:58:10;6.90;;;5.32;;
57730;SDS011;43570;47.476;19.040;2023-06-10T13:00:36;6.00;;;5.12;;
57730;SDS011;43570;47.476;19.040;2023-06-10T13:03:02;5.57;;;5.07;;
57730;SDS011;43570;47.476;19.040;2023-06-10T13:05:28;4.82;;;4.32;;
57730;SDS011;43570;47.476;19.040;2023-06-10T13:07:54;4.72;;;4.22;;
57730;SDS011;43570;47.476;19.040;2023-06-10T13:10:20;4.90;;;3.90;;
57730;SDS011;43570;47.476;19.040;2023-06-10T13:12:46;5.45;;;3.97;;
57730;SDS011;43570;47.476;19.040;2023-06-10T13:15:11;6.70;;;4.05;;
57730;SDS011;43570;47.476;19.040;2023-06-10T13:17:37;7.57;;;4.20;;
57730;SDS011;43570;47.476;19.040;2023-06-10T13:20:03;5.80;;;4.05;;
57730;SDS011;43570;47.476;19.040;2023-06-10T13:22:32;6.05;;;4.10;;
57730;SDS011;43570;47.476;19.040;2023-06-10T13:24:59;4.35;;;3.33;;
57730;SDS011;43570;47.476;19.040;2023-06-10T13:27:25;5.55;;;3.60;;
57730;SDS011;43570;47.476;19.040;2023-06-10T13:29:52;4.37;;;3.70;;
57730;SDS011;43570;47.476;19.040;2023-06-10T13:32:17;5.45;;;3.70;;
57730;SDS011;43570;47.476;19.040;2023-06-10T13:34:42;5.60;;;3.78;;
57730;SDS011;43570;47.476;19.040;2023-06-10T13:37:08;4.82;;;4.18;;
57730;SDS011;43570;47.476;19.040;2023-06-10T13:39:33;5.32;;;3.53;;
57730;SDS011;43570;47.476;19.040;2023-06-10T13:41:59;6.03;;;3.67;;
57730;SDS011;43570;47.476;19.040;2023-06-10T13:44:24;5.72;;;4.03;;
57730;SDS011;43570;47.476;19.040;2023-06-10T13:46:49;4.95;;;3.70;;
57730;SDS011;43570;47.476;19.040;2023-06-10T13:49:15;4.82;;;3.80;;
57730;SDS011;43570;47.476;19.040;2023-06-10T13:51:40;5.55;;;3.97;;
57730;SDS011;43570;47.476;19.040;2023-06-10T13:54:06;5.57;;;4.07;;
57730;SDS011;43570;47.476;19.040;2023-06-10T13:56:31;5.40;;;4.12;;
57730;SDS011;43570;47.476;19.040;2023-06-10T13:58:58;4.87;;;4.00;;
57730;SDS011;43570;47.476;19.040;2023-06-10T14:01:24;5.28;;;4.78;;
57730;SDS011;43570;47.476;19.040;2023-06-10T14:03:50;5.53;;;4.28;;
57730;SDS011;43570;47.476;19.040;2023-06-10T14:06:15;7.03;;;4.47;;
57730;SDS011;43570;47.476;19.040;2023-06-10T14:08:43;5.37;;;4.87;;
57730;SDS011;43570;47.476;19.040;2023-06-10T14:11:09;6.32;;;4.40;;
57730;SDS011;43570;47.476;19.040;2023-06-10T14:13:34;5.90;;;4.47;;
57730;SDS011;43570;47.476;19.040;2023-06-10T14:16:00;5.40;;;4.15;;
57730;SDS011;43570;47.476;19.040;2023-06-10T14:18:27;7.25;;;4.80;;
57730;SDS011;43570;47.476;19.040;2023-06-10T14:20:53;5.60;;;4.35;;
57730;SDS011;43570;47.476;19.040;2023-06-10T14:23:18;7.05;;;3.92;;
57730;SDS011;43570;47.476;19.040;2023-06-10T14:25:43;5.82;;;4.40;;
57730;SDS011;43570;47.476;19.040;2023-06-10T14:28:09;4.68;;;3.97;;
57730;SDS011;43570;47.476;19.040;2023-06-10T14:30:34;5.12;;;4.03;;
57730;SDS011;43570;47.476;19.040;2023-06-10T14:33:00;5.40;;;4.55;;
57730;SDS011;43570;47.476;19.040;2023-06-10T14:35:26;4.12;;;3.03;;
57730;SDS011;43570;47.476;19.040;2023-06-10T14:37:51;5.32;;;4.03;;
57730;SDS011;43570;47.476;19.040;2023-06-10T14:40:16;3.83;;;3.37;;
57730;SDS011;43570;47.476;19.040;2023-06-10T14:42:42;5.82;;;4.05;;
57730;SDS011;43570;47.476;19.040;2023-06-10T14:45:07;4.68;;;3.80;;
57730;SDS011;43570;47.476;19.040;2023-06-10T14:47:33;5.32;;;3.60;;
57730;SDS011;43570;47.476;19.040;2023-06-10T14:49:59;5.12;;;3.75;;
57730;SDS011;43570;47.476;19.040;2023-06-10T14:52:25;8.13;;;4.50;;
57730;SDS011;43570;47.476;19.040;2023-06-10T14:54:50;4.72;;;3.67;;
57730;SDS011;43570;47.476;19.040;2023-06-10T14:57:15;5.97;;;3.97;;